Amesbury, Massachusetts
Current Conditions -  °F | °C
As of 6:54 AM on Thursday 29 Jan 2015 (Local Time) from KLWM Reporting Station
Clear Clear  
Wind Chill: -18°   Ceiling: Unl
Heat Index: -18°   Visibility: 10mi
Dew Point: -21°   Wind: 0mph
Humidity: 76%   Direction: NA
Pressure: 30.31"   Gusts: NA
Location:  42.86°N, 70.93°W
Report Text: KLWM 291154Z 00000KT 10SM CLR M18/M21 A3031 RMK AO2 SLP265 T11781211 11106 21194 51003
Loading
Personal Weather Stations






























Interactive Weather Map New forecast layout! Learn more

10-Day Weather Forecast

Advertisements
Track Severe Weather on mobile